PWSweather.com
Personal Weather Stations
Station Observations
WATERF01
WaterfordIE

WaterfordIE

Lat: 52.2412507, Lon: -7.1414691

Elevation: 65

Station Type: Davis Vantage Vue

www.waterfordweather.com

High Low Average
Temperature 77.1°F25.1°C 60.1°F15.6°C 67.7°F19.8°C
Dew Point 64.1°F17.8°C 56.5°F13.6°C 60.8°F16.0°C
Winds 12.7 mph 20.4 kmh Calm Calm 4.0 mph WSW6.4 kmh WSW
Wind Gusts 20.7 mph33.3 kmh -- 7.0 mph11.3 kmh
Humidity 89% 63% 79%
Pressure 30.09 in1019.0 mb 29.89 in1012.2 mb -
Precipitation 0.01 in0.3 mm - -
Hour Temp Dew Point Humidity Winds Wind Gusts Pressure Precip Precip Rate Daily Precip Total
12:00 AM 62.3°F16.8°C 59.0°F15.0°C 89% 10.4 mph W16.7 kmh W 17.3 mph27.8 kmh 29.90 in1012.5 mb - 0.01 in0.3 mm 0.01 in0.3 mm
12:10 AM 62.1°F16.7°C 58.8°F14.9°C 89% 11.5 mph W18.5 kmh W 19.6 mph31.5 kmh 29.90 in1012.5 mb - 0.01 in0.3 mm 0.01 in0.3 mm
12:20 AM 62.1°F16.7°C 58.8°F14.9°C 89% 10.4 mph W16.7 kmh W 19.6 mph31.5 kmh 29.90 in1012.5 mb - 0.01 in0.3 mm 0.01 in0.3 mm
12:30 AM 61.9°F16.6°C 58.6°F14.8°C 89% 12.7 mph W20.4 kmh W 18.4 mph29.6 kmh 29.89 in1012.2 mb - 0.00 in0.0 mm 0.01 in0.3 mm
12:40 AM 61.8°F16.6°C 58.5°F14.7°C 89% 11.5 mph W18.5 kmh W 16.1 mph25.9 kmh 29.90 in1012.5 mb - 0.00 in0.0 mm 0.01 in0.3 mm
12:50 AM 61.7°F16.5°C 58.4°F14.7°C 89% 9.2 mph W14.8 kmh W 15.0 mph24.1 kmh 29.90 in1012.5 mb - 0.00 in0.0 mm 0.01 in0.3 mm
01:00 AM 61.6°F16.4°C 58.3°F14.6°C 89% 10.4 mph W16.7 kmh W 17.3 mph27.8 kmh 29.89 in1012.2 mb - 0.00 in0.0 mm 0.01 in0.3 mm
01:10 AM 61.4°F16.3°C 58.1°F14.5°C 89% 10.4 mph W16.7 kmh W 20.7 mph33.3 kmh 29.89 in1012.2 mb - 0.00 in0.0 mm 0.01 in0.3 mm
01:20 AM 61.3°F16.3°C 58.0°F14.4°C 89% 8.1 mph WSW13.0 kmh WSW 18.4 mph29.6 kmh 29.89 in1012.2 mb - 0.00 in0.0 mm 0.01 in0.3 mm
01:30 AM 61.1°F16.2°C 57.8°F14.3°C 89% 9.2 mph WSW14.8 kmh WSW 13.8 mph22.2 kmh 29.90 in1012.5 mb - 0.00 in0.0 mm 0.01 in0.3 mm
01:40 AM 61.0°F16.1°C 57.7°F14.3°C 89% 8.1 mph SW13.0 kmh SW 13.8 mph22.2 kmh 29.90 in1012.5 mb - 0.00 in0.0 mm 0.01 in0.3 mm
01:50 AM 60.9°F16.1°C 57.6°F14.2°C 89% 6.9 mph S11.1 kmh S 9.2 mph14.8 kmh 29.90 in1012.5 mb - 0.00 in0.0 mm 0.01 in0.3 mm
02:00 AM 60.9°F16.1°C 57.6°F14.2°C 89% 5.8 mph SW9.3 kmh SW 13.8 mph22.2 kmh 29.90 in1012.5 mb - 0.00 in0.0 mm 0.01 in0.3 mm
02:10 AM 60.9°F16.1°C 57.6°F14.2°C 89% 5.8 mph S9.3 kmh S 11.5 mph18.5 kmh 29.91 in1012.9 mb - 0.00 in0.0 mm 0.01 in0.3 mm
02:20 AM 61.0°F16.1°C 57.7°F14.3°C 89% 10.4 mph SSE16.7 kmh SSE 16.1 mph25.9 kmh 29.91 in1012.9 mb - 0.00 in0.0 mm 0.01 in0.3 mm
02:30 AM 61.2°F16.2°C 57.9°F14.4°C 89% 10.4 mph SE16.7 kmh SE 13.8 mph22.2 kmh 29.91 in1012.9 mb - 0.00 in0.0 mm 0.01 in0.3 mm
02:40 AM 61.2°F16.2°C 57.9°F14.4°C 89% 9.2 mph SSE14.8 kmh SSE 15.0 mph24.1 kmh 29.91 in1012.9 mb - 0.00 in0.0 mm 0.01 in0.3 mm
02:50 AM 61.3°F16.3°C 58.0°F14.4°C 89% 11.5 mph S18.5 kmh S 16.1 mph25.9 kmh 29.91 in1012.9 mb - 0.00 in0.0 mm 0.01 in0.3 mm
03:00 AM 61.3°F16.3°C 58.1°F14.5°C 89% 11.5 mph SSW18.5 kmh SSW 16.1 mph25.9 kmh 29.92 in1013.2 mb - 0.00 in0.0 mm 0.01 in0.3 mm
03:10 AM 61.4°F16.3°C 58.1°F14.5°C 89% 10.4 mph SW16.7 kmh SW 12.7 mph20.4 kmh 29.92 in1013.2 mb - 0.00 in0.0 mm 0.01 in0.3 mm
03:20 AM 61.2°F16.2°C 57.9°F14.4°C 89% 8.1 mph WSW13.0 kmh WSW 11.5 mph18.5 kmh 29.91 in1012.9 mb - 0.00 in0.0 mm 0.01 in0.3 mm
03:30 AM 61.2°F16.2°C 57.6°F14.2°C 88% 6.9 mph W11.1 kmh W 11.5 mph18.5 kmh 29.91 in1012.9 mb - 0.00 in0.0 mm 0.01 in0.3 mm
03:40 AM 61.1°F16.2°C 57.5°F14.2°C 88% 4.6 mph W7.4 kmh W 11.5 mph18.5 kmh 29.91 in1012.9 mb - 0.00 in0.0 mm 0.01 in0.3 mm
03:50 AM 61.2°F16.2°C 57.6°F14.2°C 88% 3.5 mph W5.6 kmh W 6.9 mph11.1 kmh 29.91 in1012.9 mb - 0.00 in0.0 mm 0.01 in0.3 mm
04:00 AM 61.2°F16.2°C 57.7°F14.3°C 88% 4.6 mph SW7.4 kmh SW 8.1 mph13.0 kmh 29.92 in1013.2 mb - 0.00 in0.0 mm 0.01 in0.3 mm
04:10 AM 61.2°F16.2°C 57.6°F14.2°C 88% 4.6 mph SSE7.4 kmh SSE 5.8 mph9.3 kmh 29.92 in1013.2 mb - 0.00 in0.0 mm 0.01 in0.3 mm
04:20 AM 61.1°F16.2°C 57.6°F14.2°C 88% 6.9 mph S11.1 kmh S 11.5 mph18.5 kmh 29.92 in1013.2 mb - 0.00 in0.0 mm 0.01 in0.3 mm
04:30 AM 60.9°F16.1°C 57.3°F14.1°C 88% 9.2 mph S14.8 kmh S 15.0 mph24.1 kmh 29.92 in1013.2 mb - 0.00 in0.0 mm 0.01 in0.3 mm
04:40 AM 60.7°F15.9°C 57.1°F13.9°C 88% 6.9 mph SSW11.1 kmh SSW 9.2 mph14.8 kmh 29.93 in1013.5 mb - 0.00 in0.0 mm 0.01 in0.3 mm
04:50 AM 60.7°F15.9°C 57.1°F13.9°C 88% 3.5 mph W5.6 kmh W 5.8 mph9.3 kmh 29.93 in1013.5 mb - 0.00 in0.0 mm 0.01 in0.3 mm
05:00 AM 60.6°F15.9°C 57.0°F13.9°C 88% 2.3 mph W3.7 kmh W 5.8 mph9.3 kmh 29.93 in1013.5 mb - 0.00 in0.0 mm 0.01 in0.3 mm
05:10 AM 60.6°F15.9°C 57.0°F13.9°C 88% 2.3 mph SSW3.7 kmh SSW 5.8 mph9.3 kmh 29.94 in1013.9 mb - 0.00 in0.0 mm 0.01 in0.3 mm
05:20 AM 60.6°F15.9°C 57.0°F13.9°C 88% 2.3 mph SW3.7 kmh SW 5.8 mph9.3 kmh 29.95 in1014.2 mb - 0.00 in0.0 mm 0.01 in0.3 mm
05:30 AM 60.4°F15.8°C 56.8°F13.8°C 88% Calm Calm -- 29.95 in1014.2 mb - 0.00 in0.0 mm 0.01 in0.3 mm
05:40 AM 60.2°F15.7°C 56.7°F13.7°C 88% 2.3 mph SW3.7 kmh SW 4.6 mph7.4 kmh 29.95 in1014.2 mb - 0.00 in0.0 mm 0.01 in0.3 mm
05:50 AM 60.1°F15.6°C 56.5°F13.6°C 88% Calm Calm 2.3 mph3.7 kmh 29.96 in1014.6 mb - 0.00 in0.0 mm 0.01 in0.3 mm
06:00 AM 60.1°F15.6°C 56.5°F13.6°C 88% Calm Calm -- 29.96 in1014.6 mb - 0.00 in0.0 mm 0.01 in0.3 mm
06:10 AM 60.5°F15.8°C 56.9°F13.8°C 88% Calm Calm 2.3 mph3.7 kmh 29.96 in1014.6 mb - 0.00 in0.0 mm 0.01 in0.3 mm
06:20 AM 60.7°F15.9°C 57.1°F13.9°C 88% 1.2 mph W1.9 kmh W 2.3 mph3.7 kmh 29.97 in1014.9 mb - 0.00 in0.0 mm 0.01 in0.3 mm
06:30 AM 60.8°F16.0°C 57.2°F14.0°C 88% 1.2 mph W1.9 kmh W 4.6 mph7.4 kmh 29.98 in1015.2 mb - 0.00 in0.0 mm 0.01 in0.3 mm
06:40 AM 61.1°F16.2°C 57.5°F14.2°C 88% 2.3 mph WNW3.7 kmh WNW 4.6 mph7.4 kmh 29.98 in1015.2 mb - 0.00 in0.0 mm 0.01 in0.3 mm
06:50 AM 61.7°F16.5°C 58.1°F14.5°C 88% 1.2 mph WNW1.9 kmh WNW 2.3 mph3.7 kmh 29.98 in1015.2 mb - 0.00 in0.0 mm 0.01 in0.3 mm
07:00 AM 62.5°F16.9°C 58.9°F14.9°C 88% 3.5 mph WNW5.6 kmh WNW 5.8 mph9.3 kmh 29.99 in1015.6 mb - 0.00 in0.0 mm 0.01 in0.3 mm
07:10 AM 63.0°F17.2°C 59.1°F15.1°C 87% 2.3 mph WSW3.7 kmh WSW 5.8 mph9.3 kmh 29.99 in1015.6 mb - 0.00 in0.0 mm 0.01 in0.3 mm
07:20 AM 63.4°F17.4°C 59.5°F15.3°C 87% 3.5 mph SW5.6 kmh SW 5.8 mph9.3 kmh 29.99 in1015.6 mb - 0.00 in0.0 mm 0.01 in0.3 mm
07:30 AM 63.8°F17.7°C 59.5°F15.3°C 86% 2.3 mph WSW3.7 kmh WSW 5.8 mph9.3 kmh 30.00 in1015.9 mb - 0.00 in0.0 mm 0.01 in0.3 mm
07:40 AM 64.5°F18.1°C 60.2°F15.7°C 86% 1.2 mph W1.9 kmh W 5.8 mph9.3 kmh 30.00 in1015.9 mb - 0.00 in0.0 mm 0.01 in0.3 mm
07:50 AM 65.1°F18.4°C 60.4°F15.8°C 85% 2.3 mph WSW3.7 kmh WSW 5.8 mph9.3 kmh 30.00 in1015.9 mb - 0.00 in0.0 mm 0.01 in0.3 mm
08:00 AM 66.1°F18.9°C 61.2°F16.2°C 84% 2.3 mph SW3.7 kmh SW 4.6 mph7.4 kmh 30.00 in1015.9 mb - 0.00 in0.0 mm 0.01 in0.3 mm
08:10 AM 67.0°F19.4°C 61.3°F16.3°C 82% 1.2 mph SW1.9 kmh SW 5.8 mph9.3 kmh 30.00 in1015.9 mb - 0.00 in0.0 mm 0.01 in0.3 mm
08:20 AM 67.6°F19.8°C 61.2°F16.2°C 80% 1.2 mph W1.9 kmh W 2.3 mph3.7 kmh 30.00 in1015.9 mb - 0.00 in0.0 mm 0.01 in0.3 mm
08:30 AM 67.9°F19.9°C 61.8°F16.6°C 81% 2.3 mph NW3.7 kmh NW 4.6 mph7.4 kmh 30.00 in1015.9 mb - 0.00 in0.0 mm 0.01 in0.3 mm
08:40 AM 68.0°F20.0°C 61.3°F16.3°C 79% 2.3 mph WNW3.7 kmh WNW 2.3 mph3.7 kmh 30.01 in1016.3 mb - 0.00 in0.0 mm 0.01 in0.3 mm
08:50 AM 68.3°F20.2°C 61.9°F16.6°C 80% 2.3 mph W3.7 kmh W 5.8 mph9.3 kmh 30.01 in1016.3 mb - 0.00 in0.0 mm 0.01 in0.3 mm
09:00 AM 68.7°F20.4°C 62.0°F16.7°C 79% 1.2 mph SW1.9 kmh SW 5.8 mph9.3 kmh 30.02 in1016.6 mb - 0.00 in0.0 mm 0.01 in0.3 mm
09:10 AM 68.6°F20.3°C 61.4°F16.3°C 78% 4.6 mph WSW7.4 kmh WSW 5.8 mph9.3 kmh 30.02 in1016.6 mb - 0.00 in0.0 mm 0.01 in0.3 mm
09:20 AM 68.1°F20.1°C 61.7°F16.5°C 80% 2.3 mph W3.7 kmh W 5.8 mph9.3 kmh 30.02 in1016.6 mb - 0.00 in0.0 mm 0.01 in0.3 mm
09:30 AM 67.9°F19.9°C 61.5°F16.4°C 80% 2.3 mph NW3.7 kmh NW 5.8 mph9.3 kmh 30.02 in1016.6 mb - 0.00 in0.0 mm 0.01 in0.3 mm
09:40 AM 67.9°F19.9°C 61.1°F16.2°C 79% 3.5 mph NW5.6 kmh NW 5.8 mph9.3 kmh 30.02 in1016.6 mb - 0.00 in0.0 mm 0.01 in0.3 mm
09:50 AM 68.3°F20.2°C 61.2°F16.2°C 78% 3.5 mph NW5.6 kmh NW 6.9 mph11.1 kmh 30.02 in1016.6 mb - 0.00 in0.0 mm 0.01 in0.3 mm
10:00 AM 68.9°F20.5°C 61.4°F16.3°C 77% 2.3 mph NW3.7 kmh NW 4.6 mph7.4 kmh 30.03 in1016.9 mb - 0.00 in0.0 mm 0.01 in0.3 mm
10:10 AM 69.7°F20.9°C 62.9°F17.2°C 79% 1.2 mph WNW1.9 kmh WNW 5.8 mph9.3 kmh 30.03 in1016.9 mb - 0.00 in0.0 mm 0.01 in0.3 mm
10:20 AM 69.6°F20.9°C 62.4°F16.9°C 78% 2.3 mph WNW3.7 kmh WNW 5.8 mph9.3 kmh 30.03 in1016.9 mb - 0.00 in0.0 mm 0.01 in0.3 mm
10:30 AM 70.5°F21.4°C 63.3°F17.4°C 78% 2.3 mph WSW3.7 kmh WSW 6.9 mph11.1 kmh 30.03 in1016.9 mb - 0.00 in0.0 mm 0.01 in0.3 mm
10:40 AM 71.3°F21.8°C 63.7°F17.6°C 77% 2.3 mph WSW3.7 kmh WSW 4.6 mph7.4 kmh 30.03 in1016.9 mb - 0.00 in0.0 mm 0.01 in0.3 mm
10:50 AM 71.2°F21.8°C 62.9°F17.2°C 75% 4.6 mph NW7.4 kmh NW 6.9 mph11.1 kmh 30.03 in1016.9 mb - 0.00 in0.0 mm 0.01 in0.3 mm
11:00 AM 71.7°F22.1°C 63.4°F17.4°C 75% 2.3 mph ENE3.7 kmh ENE 5.8 mph9.3 kmh 30.04 in1017.3 mb - 0.00 in0.0 mm 0.01 in0.3 mm
11:10 AM 72.1°F22.3°C 63.0°F17.2°C 73% 2.3 mph WNW3.7 kmh WNW 2.3 mph3.7 kmh 30.04 in1017.3 mb - 0.00 in0.0 mm 0.01 in0.3 mm
11:20 AM 72.0°F22.2°C 62.5°F16.9°C 72% 4.6 mph NW7.4 kmh NW 6.9 mph11.1 kmh 30.04 in1017.3 mb - 0.00 in0.0 mm 0.01 in0.3 mm
11:30 AM 72.0°F22.2°C 62.5°F16.9°C 72% 3.5 mph NW5.6 kmh NW 8.1 mph13.0 kmh 30.04 in1017.3 mb - 0.00 in0.0 mm 0.01 in0.3 mm
11:40 AM 72.6°F22.6°C 63.0°F17.2°C 72% 4.6 mph NW7.4 kmh NW 6.9 mph11.1 kmh 30.04 in1017.3 mb - 0.00 in0.0 mm 0.01 in0.3 mm
11:50 AM 73.0°F22.8°C 63.4°F17.4°C 72% 6.9 mph WNW11.1 kmh WNW 13.8 mph22.2 kmh 30.04 in1017.3 mb - 0.00 in0.0 mm 0.01 in0.3 mm
12:00 PM 73.3°F22.9°C 63.3°F17.4°C 71% 6.9 mph NW11.1 kmh NW 11.5 mph18.5 kmh 30.04 in1017.3 mb - 0.00 in0.0 mm 0.01 in0.3 mm
12:10 PM 73.7°F23.2°C 63.3°F17.4°C 70% 4.6 mph NW7.4 kmh NW 6.9 mph11.1 kmh 30.04 in1017.3 mb - 0.00 in0.0 mm 0.01 in0.3 mm
12:20 PM 74.5°F23.6°C 63.7°F17.6°C 69% 5.8 mph NNW9.3 kmh NNW 11.5 mph18.5 kmh 30.04 in1017.3 mb - 0.00 in0.0 mm 0.01 in0.3 mm
12:30 PM 75.0°F23.9°C 63.3°F17.4°C 67% 5.8 mph NW9.3 kmh NW 11.5 mph18.5 kmh 30.04 in1017.3 mb - 0.00 in0.0 mm 0.01 in0.3 mm
12:40 PM 75.4°F24.1°C 63.2°F17.3°C 66% 4.6 mph NW7.4 kmh NW 8.1 mph13.0 kmh 30.05 in1017.6 mb - 0.00 in0.0 mm 0.01 in0.3 mm
12:50 PM 75.9°F24.4°C 64.1°F17.8°C 67% 5.8 mph NW9.3 kmh NW 9.2 mph14.8 kmh 30.05 in1017.6 mb - 0.00 in0.0 mm 0.01 in0.3 mm
01:00 PM 76.0°F24.4°C 63.9°F17.7°C 66% 4.6 mph W7.4 kmh W 9.2 mph14.8 kmh 30.05 in1017.6 mb - 0.00 in0.0 mm 0.01 in0.3 mm
01:10 PM 76.4°F24.7°C 63.8°F17.7°C 65% 5.8 mph WNW9.3 kmh WNW 9.2 mph14.8 kmh 30.05 in1017.6 mb - 0.00 in0.0 mm 0.01 in0.3 mm
01:20 PM 76.6°F24.8°C 63.5°F17.5°C 64% 4.6 mph NW7.4 kmh NW 8.1 mph13.0 kmh 30.05 in1017.6 mb - 0.00 in0.0 mm 0.01 in0.3 mm
01:30 PM 76.6°F24.8°C 63.5°F17.5°C 64% 3.5 mph NW5.6 kmh NW 5.8 mph9.3 kmh 30.05 in1017.6 mb - 0.00 in0.0 mm 0.01 in0.3 mm
01:40 PM 76.8°F24.9°C 63.2°F17.3°C 63% 5.8 mph WNW9.3 kmh WNW 8.1 mph13.0 kmh 30.05 in1017.6 mb - 0.00 in0.0 mm 0.01 in0.3 mm
01:50 PM 77.1°F25.1°C 64.0°F17.8°C 64% 6.9 mph NW11.1 kmh NW 12.7 mph20.4 kmh 30.05 in1017.6 mb - 0.00 in0.0 mm 0.01 in0.3 mm
02:00 PM 76.8°F24.9°C 63.2°F17.3°C 63% 5.8 mph NW9.3 kmh NW 11.5 mph18.5 kmh 30.05 in1017.6 mb - 0.00 in0.0 mm 0.01 in0.3 mm
02:10 PM 76.2°F24.6°C 63.1°F17.3°C 64% 6.9 mph NW11.1 kmh NW 8.1 mph13.0 kmh 30.05 in1017.6 mb - 0.00 in0.0 mm 0.01 in0.3 mm
02:20 PM 76.0°F24.4°C 63.4°F17.4°C 65% 4.6 mph NNW7.4 kmh NNW 10.4 mph16.7 kmh 30.05 in1017.6 mb - 0.00 in0.0 mm 0.01 in0.3 mm
02:30 PM 75.5°F24.2°C 62.9°F17.2°C 65% 5.8 mph NNW9.3 kmh NNW 11.5 mph18.5 kmh 30.06 in1017.9 mb - 0.00 in0.0 mm 0.01 in0.3 mm
02:40 PM 75.6°F24.2°C 62.6°F17.0°C 64% 6.9 mph NW11.1 kmh NW 13.8 mph22.2 kmh 30.05 in1017.6 mb - 0.00 in0.0 mm 0.01 in0.3 mm
02:50 PM 75.4°F24.1°C 62.9°F17.2°C 65% 4.6 mph NW7.4 kmh NW 8.1 mph13.0 kmh 30.06 in1017.9 mb - 0.00 in0.0 mm 0.01 in0.3 mm
03:00 PM 75.2°F24.0°C 62.6°F17.0°C 65% 5.8 mph WNW9.3 kmh WNW 8.1 mph13.0 kmh 30.06 in1017.9 mb - 0.00 in0.0 mm 0.01 in0.3 mm
03:10 PM 75.1°F23.9°C 63.0°F17.2°C 66% 9.2 mph NW14.8 kmh NW 13.8 mph22.2 kmh 30.06 in1017.9 mb - 0.00 in0.0 mm 0.01 in0.3 mm
03:20 PM 74.6°F23.7°C 62.4°F16.9°C 66% 8.1 mph WNW13.0 kmh WNW 12.7 mph20.4 kmh 30.06 in1017.9 mb - 0.00 in0.0 mm 0.01 in0.3 mm
03:30 PM 73.8°F23.2°C 62.6°F17.0°C 68% 6.9 mph NW11.1 kmh NW 13.8 mph22.2 kmh 30.07 in1018.3 mb - 0.00 in0.0 mm 0.01 in0.3 mm
03:40 PM 73.5°F23.1°C 62.7°F17.1°C 69% 5.8 mph NW9.3 kmh NW 9.2 mph14.8 kmh 30.07 in1018.3 mb - 0.00 in0.0 mm 0.01 in0.3 mm
03:50 PM 72.9°F22.7°C 62.6°F17.0°C 70% 8.1 mph NW13.0 kmh NW 13.8 mph22.2 kmh 30.07 in1018.3 mb - 0.00 in0.0 mm 0.01 in0.3 mm
04:00 PM 72.8°F22.7°C 62.8°F17.1°C 71% 8.1 mph NW13.0 kmh NW 11.5 mph18.5 kmh 30.07 in1018.3 mb - 0.00 in0.0 mm 0.01 in0.3 mm
04:10 PM 72.6°F22.6°C 62.6°F17.0°C 71% 6.9 mph NW11.1 kmh NW 9.2 mph14.8 kmh 30.07 in1018.3 mb - 0.00 in0.0 mm 0.01 in0.3 mm
04:20 PM 72.5°F22.5°C 62.2°F16.8°C 70% 8.1 mph NNW13.0 kmh NNW 11.5 mph18.5 kmh 30.07 in1018.3 mb - 0.00 in0.0 mm 0.01 in0.3 mm
04:30 PM 72.9°F22.7°C 62.5°F16.9°C 70% 5.8 mph NW9.3 kmh NW 8.1 mph13.0 kmh 30.07 in1018.3 mb - 0.00 in0.0 mm 0.01 in0.3 mm
04:40 PM 73.3°F22.9°C 62.5°F16.9°C 69% 5.8 mph NW9.3 kmh NW 9.2 mph14.8 kmh 30.07 in1018.3 mb - 0.00 in0.0 mm 0.01 in0.3 mm
04:50 PM 73.5°F23.1°C 62.7°F17.1°C 69% 2.3 mph W3.7 kmh W 6.9 mph11.1 kmh 30.07 in1018.3 mb - 0.00 in0.0 mm 0.01 in0.3 mm
05:00 PM 73.9°F23.3°C 62.7°F17.1°C 68% 2.3 mph WNW3.7 kmh WNW 5.8 mph9.3 kmh 30.07 in1018.3 mb - 0.00 in0.0 mm 0.01 in0.3 mm
05:10 PM 73.8°F23.2°C 62.1°F16.7°C 67% 4.6 mph NW7.4 kmh NW 5.8 mph9.3 kmh 30.07 in1018.3 mb - 0.00 in0.0 mm 0.01 in0.3 mm
05:20 PM 73.4°F23.0°C 61.8°F16.6°C 67% 3.5 mph NW5.6 kmh NW 5.8 mph9.3 kmh 30.07 in1018.3 mb - 0.00 in0.0 mm 0.01 in0.3 mm
05:30 PM 73.3°F22.9°C 62.1°F16.7°C 68% 3.5 mph NW5.6 kmh NW 6.9 mph11.1 kmh 30.07 in1018.3 mb - 0.00 in0.0 mm 0.01 in0.3 mm
05:40 PM 73.5°F23.1°C 62.3°F16.8°C 68% 3.5 mph NNW5.6 kmh NNW 5.8 mph9.3 kmh 30.07 in1018.3 mb - 0.00 in0.0 mm 0.01 in0.3 mm
05:50 PM 73.4°F23.0°C 62.2°F16.8°C 68% 2.3 mph NW3.7 kmh NW 5.8 mph9.3 kmh 30.07 in1018.3 mb - 0.00 in0.0 mm 0.01 in0.3 mm
06:00 PM 73.4°F23.0°C 62.6°F17.0°C 69% 4.6 mph NW7.4 kmh NW 6.9 mph11.1 kmh 30.07 in1018.3 mb - 0.00 in0.0 mm 0.01 in0.3 mm
06:10 PM 73.4°F23.0°C 62.2°F16.8°C 68% 2.3 mph NW3.7 kmh NW 4.6 mph7.4 kmh 30.07 in1018.3 mb - 0.00 in0.0 mm 0.01 in0.3 mm
06:20 PM 73.3°F22.9°C 62.5°F16.9°C 69% 2.3 mph NW3.7 kmh NW 2.3 mph3.7 kmh 30.08 in1018.6 mb - 0.00 in0.0 mm 0.01 in0.3 mm
06:30 PM 73.2°F22.9°C 62.8°F17.1°C 70% 1.2 mph WNW1.9 kmh WNW 4.6 mph7.4 kmh 30.08 in1018.6 mb - 0.00 in0.0 mm 0.01 in0.3 mm
06:40 PM 73.0°F22.8°C 62.6°F17.0°C 70% 3.5 mph WNW5.6 kmh WNW 5.8 mph9.3 kmh 30.08 in1018.6 mb - 0.00 in0.0 mm 0.01 in0.3 mm
06:50 PM 72.7°F22.6°C 62.3°F16.8°C 70% 2.3 mph NW3.7 kmh NW 4.6 mph7.4 kmh 30.08 in1018.6 mb - 0.00 in0.0 mm 0.01 in0.3 mm
07:00 PM 72.5°F22.5°C 62.6°F17.0°C 71% Calm Calm -- 30.08 in1018.6 mb - 0.00 in0.0 mm 0.01 in0.3 mm
07:10 PM 72.0°F22.2°C 63.7°F17.6°C 75% Calm Calm -- 30.08 in1018.6 mb - 0.00 in0.0 mm 0.01 in0.3 mm
07:20 PM 71.4°F21.9°C 63.8°F17.7°C 77% Calm Calm -- 30.08 in1018.6 mb - 0.00 in0.0 mm 0.01 in0.3 mm
07:30 PM 70.3°F21.3°C 63.1°F17.3°C 78% 3.5 mph S5.6 kmh S 5.8 mph9.3 kmh 30.08 in1018.6 mb - 0.00 in0.0 mm 0.01 in0.3 mm
07:40 PM 69.3°F20.7°C 62.8°F17.1°C 80% 1.2 mph SE1.9 kmh SE 2.3 mph3.7 kmh 30.08 in1018.6 mb - 0.00 in0.0 mm 0.01 in0.3 mm
07:50 PM 68.7°F20.4°C 62.3°F16.8°C 80% 2.3 mph S3.7 kmh S 2.3 mph3.7 kmh 30.08 in1018.6 mb - 0.00 in0.0 mm 0.01 in0.3 mm
08:00 PM 68.1°F20.1°C 62.0°F16.7°C 81% 3.5 mph S5.6 kmh S 5.8 mph9.3 kmh 30.08 in1018.6 mb - 0.00 in0.0 mm 0.01 in0.3 mm
08:10 PM 67.9°F19.9°C 61.8°F16.6°C 81% 2.3 mph SW3.7 kmh SW 6.9 mph11.1 kmh 30.08 in1018.6 mb - 0.00 in0.0 mm 0.01 in0.3 mm
08:20 PM 67.7°F19.8°C 61.7°F16.5°C 81% Calm Calm -- 30.09 in1019.0 mb - 0.00 in0.0 mm 0.01 in0.3 mm
08:30 PM 67.6°F19.8°C 61.6°F16.4°C 81% Calm Calm -- 30.09 in1019.0 mb - 0.00 in0.0 mm 0.01 in0.3 mm
08:40 PM 67.5°F19.7°C 61.5°F16.4°C 81% Calm Calm -- 30.09 in1019.0 mb - 0.00 in0.0 mm 0.01 in0.3 mm
08:50 PM 67.2°F19.6°C 61.5°F16.4°C 82% 5.8 mph SE9.3 kmh SE 6.9 mph11.1 kmh 30.09 in1019.0 mb - 0.00 in0.0 mm 0.01 in0.3 mm
09:00 PM 66.5°F19.2°C 61.2°F16.2°C 83% 3.5 mph SSW5.6 kmh SSW 5.8 mph9.3 kmh 30.09 in1019.0 mb - 0.00 in0.0 mm 0.01 in0.3 mm
09:10 PM 66.4°F19.1°C 61.4°F16.3°C 84% 2.3 mph SW3.7 kmh SW 2.3 mph3.7 kmh 30.09 in1019.0 mb - 0.00 in0.0 mm 0.01 in0.3 mm
09:20 PM 66.2°F19.0°C 61.6°F16.4°C 85% Calm Calm -- 30.09 in1019.0 mb - 0.00 in0.0 mm 0.01 in0.3 mm
09:30 PM 65.6°F18.7°C 61.0°F16.1°C 85% Calm Calm -- 30.09 in1019.0 mb - 0.00 in0.0 mm 0.01 in0.3 mm
09:40 PM 65.2°F18.4°C 61.0°F16.1°C 86% 2.3 mph SSW3.7 kmh SSW 5.8 mph9.3 kmh 30.09 in1019.0 mb - 0.00 in0.0 mm 0.01 in0.3 mm
09:50 PM 65.2°F18.4°C 60.9°F16.1°C 86% Calm Calm -- 30.09 in1019.0 mb - 0.00 in0.0 mm 0.01 in0.3 mm
10:00 PM 65.2°F18.4°C 60.9°F16.1°C 86% 2.3 mph SSW3.7 kmh SSW 2.3 mph3.7 kmh 30.09 in1019.0 mb - 0.00 in0.0 mm 0.01 in0.3 mm
10:10 PM 65.0°F18.3°C 60.7°F15.9°C 86% Calm Calm -- 30.09 in1019.0 mb - 0.00 in0.0 mm 0.01 in0.3 mm
10:20 PM 64.9°F18.3°C 60.7°F15.9°C 86% 2.3 mph SE3.7 kmh SE 5.8 mph9.3 kmh 30.09 in1019.0 mb - 0.00 in0.0 mm 0.01 in0.3 mm
10:30 PM 64.7°F18.2°C 60.4°F15.8°C 86% 2.3 mph S3.7 kmh S 5.8 mph9.3 kmh 30.09 in1019.0 mb - 0.00 in0.0 mm 0.01 in0.3 mm
10:40 PM 64.5°F18.1°C 60.2°F15.7°C 86% Calm Calm -- 30.09 in1019.0 mb - 0.00 in0.0 mm 0.01 in0.3 mm
10:50 PM 64.5°F18.1°C 60.5°F15.8°C 87% Calm Calm -- 30.09 in1019.0 mb - 0.00 in0.0 mm 0.01 in0.3 mm
11:00 PM 64.6°F18.1°C 60.6°F15.9°C 87% Calm Calm -- 30.09 in1019.0 mb - 0.00 in0.0 mm 0.03 in0.8 mm
11:10 PM 64.7°F18.2°C 60.7°F15.9°C 87% Calm Calm -- 30.09 in1019.0 mb - 0.00 in0.0 mm 0.03 in0.8 mm
11:20 PM 64.9°F18.3°C 60.9°F16.1°C 87% Calm Calm 2.3 mph3.7 kmh 30.09 in1019.0 mb - 0.00 in0.0 mm 0.03 in0.8 mm
11:30 PM 64.9°F18.3°C 60.9°F16.1°C 87% Calm Calm -- 30.08 in1018.6 mb - 0.00 in0.0 mm 0.03 in0.8 mm
11:40 PM 64.9°F18.3°C 60.9°F16.1°C 87% Calm Calm -- 30.09 in1019.0 mb - 0.00 in0.0 mm 0.03 in0.8 mm
11:50 PM 64.9°F18.3°C 60.9°F16.1°C 87% Calm Calm -- 30.09 in1019.0 mb - 0.00 in0.0 mm 0.03 in0.8 mm